sensor_id;sensor_type;location;lat;lon;timestamp;pressure;altitude;pressure_sealevel;temperature
14851;BMP180;7517;48.400;11.770;2023-07-20T00:02:08;96257.00;;;24.40
14851;BMP180;7517;48.400;11.770;2023-07-20T00:04:35;96260.00;;;24.30
14851;BMP180;7517;48.400;11.770;2023-07-20T00:07:04;96260.00;;;24.20
14851;BMP180;7517;48.400;11.770;2023-07-20T00:09:32;96269.00;;;24.10
14851;BMP180;7517;48.400;11.770;2023-07-20T00:11:59;96264.00;;;24.10
14851;BMP180;7517;48.400;11.770;2023-07-20T00:14:28;96264.00;;;24.10
14851;BMP180;7517;48.400;11.770;2023-07-20T00:16:57;96265.00;;;24.10
14851;BMP180;7517;48.400;11.770;2023-07-20T00:19:24;96256.00;;;24.10
14851;BMP180;7517;48.400;11.770;2023-07-20T00:21:52;96261.00;;;24.10
14851;BMP180;7517;48.400;11.770;2023-07-20T00:24:20;96256.00;;;24.10
14851;BMP180;7517;48.400;11.770;2023-07-20T00:26:47;96264.00;;;24.20
14851;BMP180;7517;48.400;11.770;2023-07-20T00:29:15;96267.00;;;24.20
14851;BMP180;7517;48.400;11.770;2023-07-20T00:31:43;96263.00;;;24.20
14851;BMP180;7517;48.400;11.770;2023-07-20T00:34:10;96272.00;;;24.20
14851;BMP180;7517;48.400;11.770;2023-07-20T00:36:38;96270.00;;;24.20
14851;BMP180;7517;48.400;11.770;2023-07-20T00:39:05;96263.00;;;24.20
14851;BMP180;7517;48.400;11.770;2023-07-20T00:41:32;96279.00;;;24.20
14851;BMP180;7517;48.400;11.770;2023-07-20T00:43:59;96286.00;;;24.20
14851;BMP180;7517;48.400;11.770;2023-07-20T00:46:26;96272.00;;;24.20
14851;BMP180;7517;48.400;11.770;2023-07-20T00:48:56;96268.00;;;24.10
14851;BMP180;7517;48.400;11.770;2023-07-20T00:51:25;96268.00;;;24.10
14851;BMP180;7517;48.400;11.770;2023-07-20T00:53:53;96277.00;;;24.10
14851;BMP180;7517;48.400;11.770;2023-07-20T00:56:21;96269.00;;;24.10
14851;BMP180;7517;48.400;11.770;2023-07-20T00:58:49;96269.00;;;24.10
14851;BMP180;7517;48.400;11.770;2023-07-20T01:01:16;96273.00;;;24.10
14851;BMP180;7517;48.400;11.770;2023-07-20T01:03:43;96270.00;;;24.20
14851;BMP180;7517;48.400;11.770;2023-07-20T01:06:24;96267.00;;;24.20
14851;BMP180;7517;48.400;11.770;2023-07-20T01:09:05;96268.00;;;24.20
14851;BMP180;7517;48.400;11.770;2023-07-20T01:11:40;96262.00;;;24.20
14851;BMP180;7517;48.400;11.770;2023-07-20T01:14:11;96259.00;;;24.20
14851;BMP180;7517;48.400;11.770;2023-07-20T01:16:39;96271.00;;;24.20
14851;BMP180;7517;48.400;11.770;2023-07-20T01:19:07;96268.00;;;24.20
14851;BMP180;7517;48.400;11.770;2023-07-20T01:21:50;96268.00;;;24.20
14851;BMP180;7517;48.400;11.770;2023-07-20T01:25:08;96265.00;;;24.20
14851;BMP180;7517;48.400;11.770;2023-07-20T01:31:21;96259.00;;;24.20
14851;BMP180;7517;48.400;11.770;2023-07-20T01:33:54;96262.00;;;24.20
14851;BMP180;7517;48.400;11.770;2023-07-20T01:36:24;96259.00;;;24.20
14851;BMP180;7517;48.400;11.770;2023-07-20T01:38:54;96259.00;;;24.20
14851;BMP180;7517;48.400;11.770;2023-07-20T01:41:23;96261.00;;;24.20
14851;BMP180;7517;48.400;11.770;2023-07-20T01:43:50;96257.00;;;24.20
14851;BMP180;7517;48.400;11.770;2023-07-20T01:46:19;96258.00;;;24.20
14851;BMP180;7517;48.400;11.770;2023-07-20T01:48:47;96264.00;;;24.20
14851;BMP180;7517;48.400;11.770;2023-07-20T01:51:14;96265.00;;;24.20
14851;BMP180;7517;48.400;11.770;2023-07-20T01:53:43;96266.00;;;24.20
14851;BMP180;7517;48.400;11.770;2023-07-20T01:56:10;96261.00;;;24.20
14851;BMP180;7517;48.400;11.770;2023-07-20T01:58:39;96270.00;;;24.20
14851;BMP180;7517;48.400;11.770;2023-07-20T02:01:06;96263.00;;;24.20
14851;BMP180;7517;48.400;11.770;2023-07-20T02:03:35;96268.00;;;24.20
14851;BMP180;7517;48.400;11.770;2023-07-20T02:06:03;96266.00;;;24.20
14851;BMP180;7517;48.400;11.770;2023-07-20T02:08:30;96277.00;;;24.20
14851;BMP180;7517;48.400;11.770;2023-07-20T02:10:57;96274.00;;;24.20
14851;BMP180;7517;48.400;11.770;2023-07-20T02:13:24;96273.00;;;24.20
14851;BMP180;7517;48.400;11.770;2023-07-20T02:15:52;96272.00;;;24.20
14851;BMP180;7517;48.400;11.770;2023-07-20T02:18:19;96273.00;;;24.20
14851;BMP180;7517;48.400;11.770;2023-07-20T02:20:48;96269.00;;;24.20
14851;BMP180;7517;48.400;11.770;2023-07-20T02:23:15;96272.00;;;24.20
14851;BMP180;7517;48.400;11.770;2023-07-20T02:25:42;96269.00;;;24.20
14851;BMP180;7517;48.400;11.770;2023-07-20T02:28:15;96275.00;;;24.20
14851;BMP180;7517;48.400;11.770;2023-07-20T02:30:42;96281.00;;;24.20
14851;BMP180;7517;48.400;11.770;2023-07-20T02:33:10;96271.00;;;24.20
14851;BMP180;7517;48.400;11.770;2023-07-20T02:35:37;96276.00;;;24.20
14851;BMP180;7517;48.400;11.770;2023-07-20T02:38:06;96274.00;;;24.20
14851;BMP180;7517;48.400;11.770;2023-07-20T02:40:34;96276.00;;;24.20
14851;BMP180;7517;48.400;11.770;2023-07-20T02:43:01;96278.00;;;24.20
14851;BMP180;7517;48.400;11.770;2023-07-20T02:45:28;96284.00;;;24.20
14851;BMP180;7517;48.400;11.770;2023-07-20T02:47:55;96292.00;;;24.20
14851;BMP180;7517;48.400;11.770;2023-07-20T02:50:23;96280.00;;;24.20
14851;BMP180;7517;48.400;11.770;2023-07-20T02:52:50;96283.00;;;24.20
14851;BMP180;7517;48.400;11.770;2023-07-20T02:55:18;96281.00;;;24.20
14851;BMP180;7517;48.400;11.770;2023-07-20T02:57:46;96283.00;;;24.20
14851;BMP180;7517;48.400;11.770;2023-07-20T03:00:15;96291.00;;;24.20
14851;BMP180;7517;48.400;11.770;2023-07-20T03:02:42;96293.00;;;24.20
14851;BMP180;7517;48.400;11.770;2023-07-20T03:05:10;96293.00;;;24.20
14851;BMP180;7517;48.400;11.770;2023-07-20T03:07:37;96295.00;;;24.10
14851;BMP180;7517;48.400;11.770;2023-07-20T03:10:06;96299.00;;;24.10
14851;BMP180;7517;48.400;11.770;2023-07-20T03:12:36;96309.00;;;24.10
14851;BMP180;7517;48.400;11.770;2023-07-20T03:15:07;96294.00;;;24.10
14851;BMP180;7517;48.400;11.770;2023-07-20T03:17:34;96296.00;;;24.10
14851;BMP180;7517;48.400;11.770;2023-07-20T03:20:02;96302.00;;;24.10
14851;BMP180;7517;48.400;11.770;2023-07-20T03:22:29;96300.00;;;24.10
14851;BMP180;7517;48.400;11.770;2023-07-20T03:24:56;96294.00;;;24.10
14851;BMP180;7517;48.400;11.770;2023-07-20T03:27:24;96293.00;;;24.10
14851;BMP180;7517;48.400;11.770;2023-07-20T03:29:52;96295.00;;;24.10
14851;BMP180;7517;48.400;11.770;2023-07-20T03:32:19;96310.00;;;24.10
14851;BMP180;7517;48.400;11.770;2023-07-20T03:34:52;96305.00;;;24.10
14851;BMP180;7517;48.400;11.770;2023-07-20T03:37:20;96309.00;;;24.00
14851;BMP180;7517;48.400;11.770;2023-07-20T03:39:47;96306.00;;;24.00
14851;BMP180;7517;48.400;11.770;2023-07-20T03:42:15;96311.00;;;24.00
14851;BMP180;7517;48.400;11.770;2023-07-20T03:44:42;96317.00;;;24.00
14851;BMP180;7517;48.400;11.770;2023-07-20T03:47:11;96317.00;;;24.00
14851;BMP180;7517;48.400;11.770;2023-07-20T03:49:38;96312.00;;;24.00
14851;BMP180;7517;48.400;11.770;2023-07-20T03:52:06;96323.00;;;24.00
14851;BMP180;7517;48.400;11.770;2023-07-20T03:54:33;96318.00;;;24.00
14851;BMP180;7517;48.400;11.770;2023-07-20T03:57:00;96319.00;;;24.00
14851;BMP180;7517;48.400;11.770;2023-07-20T03:59:27;96329.00;;;24.00
14851;BMP180;7517;48.400;11.770;2023-07-20T04:01:53;96328.00;;;24.00
14851;BMP180;7517;48.400;11.770;2023-07-20T04:04:22;96331.00;;;24.00
14851;BMP180;7517;48.400;11.770;2023-07-20T04:06:49;96334.00;;;24.00
14851;BMP180;7517;48.400;11.770;2023-07-20T04:09:16;96321.00;;;23.90
14851;BMP180;7517;48.400;11.770;2023-07-20T04:11:44;96335.00;;;23.90
14851;BMP180;7517;48.400;11.770;2023-07-20T04:14:11;96334.00;;;23.90
14851;BMP180;7517;48.400;11.770;2023-07-20T04:16:38;96334.00;;;23.90
14851;BMP180;7517;48.400;11.770;2023-07-20T04:19:05;96339.00;;;23.90
14851;BMP180;7517;48.400;11.770;2023-07-20T04:21:40;96339.00;;;23.90
14851;BMP180;7517;48.400;11.770;2023-07-20T04:24:08;96341.00;;;23.90
14851;BMP180;7517;48.400;11.770;2023-07-20T04:26:35;96340.00;;;23.90
14851;BMP180;7517;48.400;11.770;2023-07-20T04:29:02;96344.00;;;23.90
14851;BMP180;7517;48.400;11.770;2023-07-20T04:31:29;96355.00;;;23.90
14851;BMP180;7517;48.400;11.770;2023-07-20T04:33:59;96341.00;;;23.90
14851;BMP180;7517;48.400;11.770;2023-07-20T04:36:26;96352.00;;;23.80
14851;BMP180;7517;48.400;11.770;2023-07-20T04:38:55;96348.00;;;23.80
14851;BMP180;7517;48.400;11.770;2023-07-20T04:41:22;96352.00;;;23.80
14851;BMP180;7517;48.400;11.770;2023-07-20T04:43:51;96354.00;;;23.80
14851;BMP180;7517;48.400;11.770;2023-07-20T04:46:19;96348.00;;;23.80
14851;BMP180;7517;48.400;11.770;2023-07-20T04:48:47;96352.00;;;23.80
14851;BMP180;7517;48.400;11.770;2023-07-20T04:51:14;96360.00;;;23.80
14851;BMP180;7517;48.400;11.770;2023-07-20T04:53:43;96357.00;;;23.80
14851;BMP180;7517;48.400;11.770;2023-07-20T04:56:14;96356.00;;;23.80
14851;BMP180;7517;48.400;11.770;2023-07-20T04:58:41;96364.00;;;23.80
14851;BMP180;7517;48.400;11.770;2023-07-20T05:01:09;96360.00;;;23.80
14851;BMP180;7517;48.400;11.770;2023-07-20T05:03:36;96358.00;;;23.80
14851;BMP180;7517;48.400;11.770;2023-07-20T05:06:03;96369.00;;;23.80
14851;BMP180;7517;48.400;11.770;2023-07-20T05:08:30;96358.00;;;23.80
14851;BMP180;7517;48.400;11.770;2023-07-20T05:10:57;96356.00;;;23.80
14851;BMP180;7517;48.400;11.770;2023-07-20T05:13:26;96367.00;;;23.80
14851;BMP180;7517;48.400;11.770;2023-07-20T05:15:53;96363.00;;;23.80
14851;BMP180;7517;48.400;11.770;2023-07-20T05:18:20;96361.00;;;23.80
14851;BMP180;7517;48.400;11.770;2023-07-20T05:20:48;96364.00;;;23.80
14851;BMP180;7517;48.400;11.770;2023-07-20T05:23:18;96365.00;;;23.80
14851;BMP180;7517;48.400;11.770;2023-07-20T05:25:46;96374.00;;;23.80
14851;BMP180;7517;48.400;11.770;2023-07-20T05:28:16;96366.00;;;23.80
14851;BMP180;7517;48.400;11.770;2023-07-20T05:30:45;96379.00;;;23.80
14851;BMP180;7517;48.400;11.770;2023-07-20T05:33:12;96376.00;;;23.80
14851;BMP180;7517;48.400;11.770;2023-07-20T05:35:40;96377.00;;;23.80
14851;BMP180;7517;48.400;11.770;2023-07-20T05:38:07;96378.00;;;23.80
14851;BMP180;7517;48.400;11.770;2023-07-20T05:40:37;96375.00;;;23.80
14851;BMP180;7517;48.400;11.770;2023-07-20T05:43:04;96376.00;;;23.80
14851;BMP180;7517;48.400;11.770;2023-07-20T05:45:32;96389.00;;;23.80
14851;BMP180;7517;48.400;11.770;2023-07-20T05:48:01;96383.00;;;23.80
14851;BMP180;7517;48.400;11.770;2023-07-20T05:50:28;96389.00;;;23.80
14851;BMP180;7517;48.400;11.770;2023-07-20T05:52:56;96382.00;;;23.80
14851;BMP180;7517;48.400;11.770;2023-07-20T05:55:23;96387.00;;;23.80
14851;BMP180;7517;48.400;11.770;2023-07-20T05:57:50;96389.00;;;23.80
14851;BMP180;7517;48.400;11.770;2023-07-20T06:00:19;96394.00;;;23.80
14851;BMP180;7517;48.400;11.770;2023-07-20T06:02:52;96389.00;;;23.90
14851;BMP180;7517;48.400;11.770;2023-07-20T06:05:22;96393.00;;;23.80
14851;BMP180;7517;48.400;11.770;2023-07-20T06:07:49;96403.00;;;23.90
14851;BMP180;7517;48.400;11.770;2023-07-20T06:10:17;96403.00;;;23.90
14851;BMP180;7517;48.400;11.770;2023-07-20T06:12:44;96406.00;;;23.90
14851;BMP180;7517;48.400;11.770;2023-07-20T06:15:26;96403.00;;;23.90
14851;BMP180;7517;48.400;11.770;2023-07-20T06:17:54;96409.00;;;23.90
14851;BMP180;7517;48.400;11.770;2023-07-20T06:20:25;96403.00;;;24.00
14851;BMP180;7517;48.400;11.770;2023-07-20T06:22:52;96406.00;;;24.00
14851;BMP180;7517;48.400;11.770;2023-07-20T06:25:20;96401.00;;;24.00
14851;BMP180;7517;48.400;11.770;2023-07-20T06:27:49;96404.00;;;24.10
14851;BMP180;7517;48.400;11.770;2023-07-20T06:30:17;96398.00;;;24.10
14851;BMP180;7517;48.400;11.770;2023-07-20T06:32:45;96402.00;;;24.10
14851;BMP180;7517;48.400;11.770;2023-07-20T06:35:15;96395.00;;;24.10
14851;BMP180;7517;48.400;11.770;2023-07-20T06:37:44;96392.00;;;24.10
14851;BMP180;7517;48.400;11.770;2023-07-20T06:40:13;96398.00;;;24.10
14851;BMP180;7517;48.400;11.770;2023-07-20T06:42:40;96389.00;;;24.10
14851;BMP180;7517;48.400;11.770;2023-07-20T06:45:08;96403.00;;;24.20
14851;BMP180;7517;48.400;11.770;2023-07-20T06:47:39;96402.00;;;24.20
14851;BMP180;7517;48.400;11.770;2023-07-20T06:50:09;96400.00;;;24.20
14851;BMP180;7517;48.400;11.770;2023-07-20T06:52:37;96394.00;;;24.30
14851;BMP180;7517;48.400;11.770;2023-07-20T06:55:08;96402.00;;;24.30
14851;BMP180;7517;48.400;11.770;2023-07-20T06:57:35;96399.00;;;24.30
14851;BMP180;7517;48.400;11.770;2023-07-20T07:00:03;96405.00;;;24.40
14851;BMP180;7517;48.400;11.770;2023-07-20T07:02:32;96408.00;;;24.40
14851;BMP180;7517;48.400;11.770;2023-07-20T07:05:00;96403.00;;;24.50
14851;BMP180;7517;48.400;11.770;2023-07-20T07:07:27;96397.00;;;24.50
14851;BMP180;7517;48.400;11.770;2023-07-20T07:09:55;96405.00;;;24.60
14851;BMP180;7517;48.400;11.770;2023-07-20T07:12:24;96403.00;;;24.60
14851;BMP180;7517;48.400;11.770;2023-07-20T07:14:51;96405.00;;;24.70
14851;BMP180;7517;48.400;11.770;2023-07-20T07:17:19;96408.00;;;24.70
14851;BMP180;7517;48.400;11.770;2023-07-20T07:19:46;96415.00;;;24.70
14851;BMP180;7517;48.400;11.770;2023-07-20T07:22:14;96408.00;;;24.70
14851;BMP180;7517;48.400;11.770;2023-07-20T07:24:41;96401.00;;;24.70
14851;BMP180;7517;48.400;11.770;2023-07-20T07:27:09;96399.00;;;24.70
14851;BMP180;7517;48.400;11.770;2023-07-20T07:29:38;96398.00;;;24.80
14851;BMP180;7517;48.400;11.770;2023-07-20T07:32:06;96400.00;;;24.80
14851;BMP180;7517;48.400;11.770;2023-07-20T07:34:36;96403.00;;;24.80
14851;BMP180;7517;48.400;11.770;2023-07-20T07:37:05;96400.00;;;24.80
14851;BMP180;7517;48.400;11.770;2023-07-20T07:39:33;96392.00;;;24.80
14851;BMP180;7517;48.400;11.770;2023-07-20T07:42:00;96398.00;;;24.90
14851;BMP180;7517;48.400;11.770;2023-07-20T07:44:27;96398.00;;;24.90
14851;BMP180;7517;48.400;11.770;2023-07-20T07:46:56;96406.00;;;25.00
14851;BMP180;7517;48.400;11.770;2023-07-20T07:49:23;96405.00;;;25.00
14851;BMP180;7517;48.400;11.770;2023-07-20T07:51:52;96402.00;;;25.10
14851;BMP180;7517;48.400;11.770;2023-07-20T07:54:19;96404.00;;;25.10
14851;BMP180;7517;48.400;11.770;2023-07-20T07:56:46;96407.00;;;25.20
14851;BMP180;7517;48.400;11.770;2023-07-20T07:59:14;96412.00;;;25.20
14851;BMP180;7517;48.400;11.770;2023-07-20T08:01:41;96422.00;;;25.30
14851;BMP180;7517;48.400;11.770;2023-07-20T08:04:11;96414.00;;;25.30
14851;BMP180;7517;48.400;11.770;2023-07-20T08:06:38;96414.00;;;25.40
14851;BMP180;7517;48.400;11.770;2023-07-20T08:09:06;96414.00;;;25.40
14851;BMP180;7517;48.400;11.770;2023-07-20T08:11:33;96411.00;;;25.50
14851;BMP180;7517;48.400;11.770;2023-07-20T08:14:01;96409.00;;;25.50
14851;BMP180;7517;48.400;11.770;2023-07-20T08:16:28;96419.00;;;25.60
14851;BMP180;7517;48.400;11.770;2023-07-20T08:18:55;96414.00;;;25.60
14851;BMP180;7517;48.400;11.770;2023-07-20T08:21:24;96418.00;;;25.80
14851;BMP180;7517;48.400;11.770;2023-07-20T08:23:51;96418.00;;;25.90
14851;BMP180;7517;48.400;11.770;2023-07-20T08:26:19;96419.00;;;26.00
14851;BMP180;7517;48.400;11.770;2023-07-20T08:28:48;96418.00;;;26.10
14851;BMP180;7517;48.400;11.770;2023-07-20T08:31:15;96413.00;;;26.30
14851;BMP180;7517;48.400;11.770;2023-07-20T08:33:43;96416.00;;;26.40
14851;BMP180;7517;48.400;11.770;2023-07-20T08:36:10;96424.00;;;26.60
14851;BMP180;7517;48.400;11.770;2023-07-20T08:38:39;96417.00;;;26.70
14851;BMP180;7517;48.400;11.770;2023-07-20T08:41:07;96424.00;;;26.80
14851;BMP180;7517;48.400;11.770;2023-07-20T08:43:40;96413.00;;;26.90
14851;BMP180;7517;48.400;11.770;2023-07-20T08:46:10;96411.00;;;27.00
14851;BMP180;7517;48.400;11.770;2023-07-20T08:48:39;96413.00;;;27.20
14851;BMP180;7517;48.400;11.770;2023-07-20T08:51:07;96420.00;;;27.30
14851;BMP180;7517;48.400;11.770;2023-07-20T08:53:34;96418.00;;;27.40
14851;BMP180;7517;48.400;11.770;2023-07-20T08:56:04;96407.00;;;27.60
14851;BMP180;7517;48.400;11.770;2023-07-20T08:58:34;96406.00;;;27.70
14851;BMP180;7517;48.400;11.770;2023-07-20T09:01:03;96404.00;;;27.90
14851;BMP180;7517;48.400;11.770;2023-07-20T09:03:30;96414.00;;;28.00
14851;BMP180;7517;48.400;11.770;2023-07-20T09:05:58;96408.00;;;28.10
14851;BMP180;7517;48.400;11.770;2023-07-20T09:08:26;96427.00;;;28.20
14851;BMP180;7517;48.400;11.770;2023-07-20T09:10:53;96412.00;;;28.30
14851;BMP180;7517;48.400;11.770;2023-07-20T09:13:22;96415.00;;;28.40
14851;BMP180;7517;48.400;11.770;2023-07-20T09:15:54;96411.00;;;28.50
14851;BMP180;7517;48.400;11.770;2023-07-20T09:18:25;96417.00;;;28.60
14851;BMP180;7517;48.400;11.770;2023-07-20T09:20:53;96414.00;;;28.70
14851;BMP180;7517;48.400;11.770;2023-07-20T09:23:20;96421.00;;;28.70
14851;BMP180;7517;48.400;11.770;2023-07-20T09:25:49;96426.00;;;28.80
14851;BMP180;7517;48.400;11.770;2023-07-20T09:28:17;96423.00;;;28.80
14851;BMP180;7517;48.400;11.770;2023-07-20T09:30:46;96418.00;;;28.80
14851;BMP180;7517;48.400;11.770;2023-07-20T09:33:19;96419.00;;;28.80
14851;BMP180;7517;48.400;11.770;2023-07-20T09:35:48;96413.00;;;28.90
14851;BMP180;7517;48.400;11.770;2023-07-20T09:38:15;96413.00;;;29.00
14851;BMP180;7517;48.400;11.770;2023-07-20T09:40:43;96413.00;;;29.00
14851;BMP180;7517;48.400;11.770;2023-07-20T09:43:11;96413.00;;;29.00
14851;BMP180;7517;48.400;11.770;2023-07-20T09:45:41;96402.00;;;29.10
14851;BMP180;7517;48.400;11.770;2023-07-20T09:48:11;96412.00;;;29.10
14851;BMP180;7517;48.400;11.770;2023-07-20T09:50:48;96412.00;;;29.20
14851;BMP180;7517;48.400;11.770;2023-07-20T09:53:18;96418.00;;;29.20
14851;BMP180;7517;48.400;11.770;2023-07-20T09:55:46;96409.00;;;29.20
14851;BMP180;7517;48.400;11.770;2023-07-20T09:58:14;96402.00;;;29.30
14851;BMP180;7517;48.400;11.770;2023-07-20T10:00:42;96407.00;;;29.30
14851;BMP180;7517;48.400;11.770;2023-07-20T10:03:21;96418.00;;;29.40
14851;BMP180;7517;48.400;11.770;2023-07-20T10:05:56;96411.00;;;29.40
14851;BMP180;7517;48.400;11.770;2023-07-20T10:08:25;96413.00;;;29.50
14851;BMP180;7517;48.400;11.770;2023-07-20T10:10:53;96412.00;;;29.60
14851;BMP180;7517;48.400;11.770;2023-07-20T10:13:28;96412.00;;;29.80
14851;BMP180;7517;48.400;11.770;2023-07-20T10:16:02;96402.00;;;29.90
14851;BMP180;7517;48.400;11.770;2023-07-20T10:18:40;96410.00;;;30.10
14851;BMP180;7517;48.400;11.770;2023-07-20T10:21:10;96407.00;;;30.20
14851;BMP180;7517;48.400;11.770;2023-07-20T10:23:39;96409.00;;;30.30
14851;BMP180;7517;48.400;11.770;2023-07-20T10:26:07;96409.00;;;30.40
14851;BMP180;7517;48.400;11.770;2023-07-20T10:28:36;96398.00;;;30.40
14851;BMP180;7517;48.400;11.770;2023-07-20T10:31:03;96400.00;;;30.50
14851;BMP180;7517;48.400;11.770;2023-07-20T10:33:32;96400.00;;;30.60
14851;BMP180;7517;48.400;11.770;2023-07-20T10:36:03;96400.00;;;30.60
14851;BMP180;7517;48.400;11.770;2023-07-20T10:38:40;96402.00;;;30.70
14851;BMP180;7517;48.400;11.770;2023-07-20T10:41:20;96397.00;;;30.80
14851;BMP180;7517;48.400;11.770;2023-07-20T10:43:50;96398.00;;;30.90
14851;BMP180;7517;48.400;11.770;2023-07-20T10:46:42;96405.00;;;31.00
14851;BMP180;7517;48.400;11.770;2023-07-20T10:49:13;96397.00;;;31.10
14851;BMP180;7517;48.400;11.770;2023-07-20T10:51:43;96403.00;;;31.20
14851;BMP180;7517;48.400;11.770;2023-07-20T10:54:49;96387.00;;;31.20
14851;BMP180;7517;48.400;11.770;2023-07-20T10:57:24;96391.00;;;31.20
14851;BMP180;7517;48.400;11.770;2023-07-20T10:59:51;96393.00;;;31.20
14851;BMP180;7517;48.400;11.770;2023-07-20T11:02:20;96391.00;;;31.20
14851;BMP180;7517;48.400;11.770;2023-07-20T11:04:49;96392.00;;;31.10
14851;BMP180;7517;48.400;11.770;2023-07-20T11:07:20;96397.00;;;31.10
14851;BMP180;7517;48.400;11.770;2023-07-20T11:10:13;96388.00;;;31.00
14851;BMP180;7517;48.400;11.770;2023-07-20T11:12:41;96389.00;;;30.90
14851;BMP180;7517;48.400;11.770;2023-07-20T11:15:09;96382.00;;;30.80
14851;BMP180;7517;48.400;11.770;2023-07-20T11:17:37;96384.00;;;30.80
14851;BMP180;7517;48.400;11.770;2023-07-20T11:20:13;96389.00;;;30.60
14851;BMP180;7517;48.400;11.770;2023-07-20T11:22:40;96391.00;;;30.50
14851;BMP180;7517;48.400;11.770;2023-07-20T11:25:10;96380.00;;;30.40
14851;BMP180;7517;48.400;11.770;2023-07-20T11:27:48;96383.00;;;30.30
14851;BMP180;7517;48.400;11.770;2023-07-20T11:30:16;96383.00;;;30.10
14851;BMP180;7517;48.400;11.770;2023-07-20T11:32:48;96367.00;;;30.00
14851;BMP180;7517;48.400;11.770;2023-07-20T11:35:16;96378.00;;;29.90
14851;BMP180;7517;48.400;11.770;2023-07-20T11:37:44;96370.00;;;29.80
14851;BMP180;7517;48.400;11.770;2023-07-20T11:40:13;96367.00;;;29.70
14851;BMP180;7517;48.400;11.770;2023-07-20T11:42:40;96365.00;;;29.60
14851;BMP180;7517;48.400;11.770;2023-07-20T11:45:09;96361.00;;;29.50
14851;BMP180;7517;48.400;11.770;2023-07-20T11:47:40;96368.00;;;29.40
14851;BMP180;7517;48.400;11.770;2023-07-20T11:50:10;96357.00;;;29.30
14851;BMP180;7517;48.400;11.770;2023-07-20T11:52:41;96352.00;;;29.30
14851;BMP180;7517;48.400;11.770;2023-07-20T11:55:10;96349.00;;;29.20
14851;BMP180;7517;48.400;11.770;2023-07-20T11:57:38;96350.00;;;29.20
14851;BMP180;7517;48.400;11.770;2023-07-20T12:00:07;96340.00;;;29.10
14851;BMP180;7517;48.400;11.770;2023-07-20T12:02:38;96344.00;;;29.10
14851;BMP180;7517;48.400;11.770;2023-07-20T12:05:07;96334.00;;;29.10
14851;BMP180;7517;48.400;11.770;2023-07-20T12:07:36;96337.00;;;29.10
14851;BMP180;7517;48.400;11.770;2023-07-20T12:10:11;96339.00;;;29.10
14851;BMP180;7517;48.400;11.770;2023-07-20T12:12:39;96329.00;;;29.10
14851;BMP180;7517;48.400;11.770;2023-07-20T12:15:15;96336.00;;;29.10
14851;BMP180;7517;48.400;11.770;2023-07-20T12:17:43;96330.00;;;29.10
14851;BMP180;7517;48.400;11.770;2023-07-20T12:20:12;96324.00;;;29.10
14851;BMP180;7517;48.400;11.770;2023-07-20T12:22:44;96326.00;;;29.10
14851;BMP180;7517;48.400;11.770;2023-07-20T12:25:12;96323.00;;;29.10
14851;BMP180;7517;48.400;11.770;2023-07-20T12:27:40;96322.00;;;29.00
14851;BMP180;7517;48.400;11.770;2023-07-20T12:30:09;96313.00;;;29.00
14851;BMP180;7517;48.400;11.770;2023-07-20T12:32:37;96323.00;;;29.00
14851;BMP180;7517;48.400;11.770;2023-07-20T12:35:05;96323.00;;;29.00
14851;BMP180;7517;48.400;11.770;2023-07-20T12:37:33;96323.00;;;28.90
14851;BMP180;7517;48.400;11.770;2023-07-20T12:40:01;96306.00;;;28.90
14851;BMP180;7517;48.400;11.770;2023-07-20T12:42:31;96313.00;;;28.90
14851;BMP180;7517;48.400;11.770;2023-07-20T12:44:58;96316.00;;;28.90
14851;BMP180;7517;48.400;11.770;2023-07-20T12:47:25;96311.00;;;28.90
14851;BMP180;7517;48.400;11.770;2023-07-20T12:49:52;96296.00;;;28.90
14851;BMP180;7517;48.400;11.770;2023-07-20T12:52:20;96303.00;;;28.90
14851;BMP180;7517;48.400;11.770;2023-07-20T12:54:47;96316.00;;;28.90
14851;BMP180;7517;48.400;11.770;2023-07-20T12:57:14;96304.00;;;28.90
14851;BMP180;7517;48.400;11.770;2023-07-20T12:59:43;96303.00;;;28.90
14851;BMP180;7517;48.400;11.770;2023-07-20T13:02:10;96299.00;;;28.90
14851;BMP180;7517;48.400;11.770;2023-07-20T13:04:38;96295.00;;;28.90
14851;BMP180;7517;48.400;11.770;2023-07-20T13:07:10;96294.00;;;28.90
14851;BMP180;7517;48.400;11.770;2023-07-20T13:09:37;96288.00;;;28.90
14851;BMP180;7517;48.400;11.770;2023-07-20T13:12:06;96293.00;;;28.90
14851;BMP180;7517;48.400;11.770;2023-07-20T13:14:33;96291.00;;;28.90
14851;BMP180;7517;48.400;11.770;2023-07-20T13:17:02;96287.00;;;28.90
14851;BMP180;7517;48.400;11.770;2023-07-20T13:19:30;96294.00;;;28.90
14851;BMP180;7517;48.400;11.770;2023-07-20T13:21:57;96288.00;;;28.90
14851;BMP180;7517;48.400;11.770;2023-07-20T13:24:24;96282.00;;;28.90
14851;BMP180;7517;48.400;11.770;2023-07-20T13:26:51;96273.00;;;28.90
14851;BMP180;7517;48.400;11.770;2023-07-20T13:29:19;96272.00;;;28.90
14851;BMP180;7517;48.400;11.770;2023-07-20T13:31:46;96275.00;;;28.90
14851;BMP180;7517;48.400;11.770;2023-07-20T13:34:15;96291.00;;;28.90
14851;BMP180;7517;48.400;11.770;2023-07-20T13:36:44;96274.00;;;28.90
14851;BMP180;7517;48.400;11.770;2023-07-20T13:39:11;96272.00;;;28.90
14851;BMP180;7517;48.400;11.770;2023-07-20T13:41:39;96265.00;;;28.90
14851;BMP180;7517;48.400;11.770;2023-07-20T13:44:06;96273.00;;;28.90
14851;BMP180;7517;48.400;11.770;2023-07-20T13:46:33;96271.00;;;28.80
14851;BMP180;7517;48.400;11.770;2023-07-20T13:49:01;96264.00;;;28.80
14851;BMP180;7517;48.400;11.770;2023-07-20T13:51:30;96256.00;;;28.80
14851;BMP180;7517;48.400;11.770;2023-07-20T13:53:57;96255.00;;;28.80
14851;BMP180;7517;48.400;11.770;2023-07-20T13:56:25;96254.00;;;28.80
14851;BMP180;7517;48.400;11.770;2023-07-20T13:58:52;96255.00;;;28.80
14851;BMP180;7517;48.400;11.770;2023-07-20T14:01:19;96249.00;;;28.80
14851;BMP180;7517;48.400;11.770;2023-07-20T14:03:49;96249.00;;;28.80
14851;BMP180;7517;48.400;11.770;2023-07-20T14:06:16;96242.00;;;28.80
14851;BMP180;7517;48.400;11.770;2023-07-20T14:08:45;96238.00;;;28.80
14851;BMP180;7517;48.400;11.770;2023-07-20T14:11:14;96236.00;;;28.80
14851;BMP180;7517;48.400;11.770;2023-07-20T14:13:42;96236.00;;;28.80
14851;BMP180;7517;48.400;11.770;2023-07-20T14:16:10;96227.00;;;28.80
14851;BMP180;7517;48.400;11.770;2023-07-20T14:18:37;96229.00;;;28.80
14851;BMP180;7517;48.400;11.770;2023-07-20T14:21:05;96219.00;;;28.80
14851;BMP180;7517;48.400;11.770;2023-07-20T14:23:32;96217.00;;;28.90